Featured Flight

MET2281 - Kansas City to Oklahoma City

Bombardier Dash-8-Q200
835AG
1 hr 20 mins
272 nm
Scheduled - Daily

Bid/PiRep Status

Bid was submitted on October 21st, 2016 4:52 UTC.
PiRep # 73801: Approved by Dave Nichols on October 27th, 2016 1:43 UTC

Departure

Departing from
Kansas City (MCI)
Departure gate
Scheduled Departure
GMT 1400
Local 0900
METAR KMCI 250053Z 35009KT 10SM OVC150 17/05 A2975 RMK AO2 SLP069 T01670050
TAF KMCI 242320Z 2500/2524 33012KT P6SM SCT250 FM250900 33006KT P6SM SKC

Route Map

Planning Resources

WLDCT2 GULLI1
DOSOA J25 TUL GULLI
â– RACER3 DOSOA TUL TRUMP5
KMCI DOSOA TUL DWINE KOKC
DOSOA WP1 TUL KOKC
Route:
OFP Layout:
Units:
Detailed Navlog:
ETOPS Planning:
Plan Stepclimbs:
Runway Analysis:
Include NOTAMS:
FIR NOTAMS:
Flight Maps:

Popularity

Hub Current Bids PiReps this month Total PiReps
KLAX 0 0 0
KBOS 0 0 0
KDFW 0 0 0